Tina-c — 2APY2 — position and weather

sailwx.info

Track history (hours):
 
Tides and Currents Weather Stations Pressure Air Temp Water Temp Dewpoint Dewpoint Depression Visibility Wind Speed Wind Dir Waves Ship Positions

Tina-c

Last reported at 2015-Jul-30 01:23 UTC. Time now 2015-Aug-03 21:20 UTC.
Position N 38°00' W 010°09'.

Length 99 m; draft 6.4 m.

Type: Cargo ship. MMSI: 235061987.

Date/timePositionNaut miles runAvg speedWind from/ knotsBaromVisibWave heightAir tempDewpointWater temp
2015-Jul-30 01:23N 38°00' W 010°09'910.6
2015-Jul-30 00:34N 38°07' W 010°01'9 8.8
2015-Jul-29 23:33N 38°13' W 009°53'1010.3
2015-Jul-29 22:33N 38°20' W 009°44'1111.2
2015-Jul-29 21:34N 38°28' W 009°34'1111.0
2015-Jul-29 20:34N 38°36' W 009°24'9 7.6
2015-Jul-29 19:22N 38°40' W 009°14'0 0.0
2015-Jul-29 18:28N 38°40' W 009°14'0 0.0
2015-Jul-29 17:04N 38°40' W 009°14'0 0.0
2015-Jul-29 16:19N 38°40' W 009°14'0 0.0
2015-Jul-29 15:28N 38°40' W 009°14'0 0.0
2015-Jul-29 14:31N 38°40' W 009°14'0 0.0
2015-Jul-29 13:28N 38°40' W 009°14'0 0.0
2015-Jul-29 12:28N 38°41' W 009°14'0 0.0
2015-Jul-29 11:22N 38°40' W 009°14'0 0.0
2015-Jul-29 10:22N 38°40' W 009°14'0 0.0
2015-Jul-29 09:28N 38°40' W 009°14'0 0.0
2015-Jul-29 08:28N 38°40' W 009°14'0 0.0
2015-Jul-29 07:28N 38°40' W 009°14'0 0.0
2015-Jul-29 06:22N 38°40' W 009°14'0 0.0
2015-Jul-29 05:13N 38°40' W 009°14'0 0.0
2015-Jul-29 04:31N 38°40' W 009°14'0 0.0
2015-Jul-29 03:31N 38°40' W 009°14'0 0.0
2015-Jul-29 02:31N 38°40' W 009°14'0 0.0
2015-Jul-29 01:28N 38°40' W 009°14'0 0.0
2015-Jul-29 00:28N 38°40' W 009°14'0 0.0
2015-Jul-28 23:31N 38°40' W 009°14'0 0.0
2015-Jul-28 22:28N 38°40' W 009°14'0 0.0
2015-Jul-28 21:19N 38°40' W 009°14'0 0.0
2015-Jul-28 20:16N 38°40' W 009°14'0 0.0
2015-Jul-28 19:22N 38°40' W 009°14'0 0.0
2015-Jul-28 18:28N 38°40' W 009°14'0 0.0
2015-Jul-28 17:31N 38°40' W 009°14'0 0.0
2015-Jul-28 16:28N 38°40' W 009°14'0 0.0
2015-Jul-28 15:22N 38°41' W 009°14'0 0.0
2015-Jul-28 14:31N 38°40' W 009°14'0 0.0
2015-Jul-28 13:22N 38°40' W 009°14'0 0.0
2015-Jul-28 10:22N 38°40' W 009°14'0 0.0
2015-Jul-28 09:28N 38°41' W 009°14'0 0.0
2015-Jul-28 08:16N 38°40' W 009°14'0 0.0
2015-Jul-28 07:28N 38°40' W 009°14'0 0.0
2015-Jul-28 06:28N 38°40' W 009°14'0 0.0
2015-Jul-28 05:28N 38°40' W 009°14'0 0.0
2015-Jul-28 04:28N 38°40' W 009°14'0 0.0
2015-Jul-28 03:28N 38°40' W 009°14'0 0.0
2015-Jul-28 02:28N 38°40' W 009°14'0 0.0
2015-Jul-28 01:31N 38°40' W 009°14'0 0.0
2015-Jul-28 00:28N 38°40' W 009°14'0 0.0
2015-Jul-27 23:28N 38°40' W 009°14'0 0.0
2015-Jul-27 22:31N 38°40' W 009°14'0 0.0
2015-Jul-27 21:28N 38°41' W 009°14'0 0.0
2015-Jul-27 20:28N 38°40' W 009°14'0 0.0
2015-Jul-27 19:16N 38°40' W 009°14'0 0.0
2015-Jul-27 18:28N 38°40' W 009°14'0 0.0
2015-Jul-27 17:28N 38°41' W 009°14'3 2.7
2015-Jul-27 16:31N 38°41' W 009°11'0 0.0
2015-Jul-27 15:28N 38°41' W 009°11'0 0.0
2015-Jul-27 14:31N 38°41' W 009°11'0 0.0
2015-Jul-27 13:34N 38°41' W 009°11'0 0.0
2015-Jul-27 12:31N 38°41' W 009°11'0 0.0
2015-Jul-27 11:34N 38°41' W 009°11'0 0.0
2015-Jul-27 10:34N 38°41' W 009°11'0 0.0
2015-Jul-27 09:34N 38°41' W 009°11'0 0.0
2015-Jul-27 08:34N 38°41' W 009°11'0 0.0
2015-Jul-27 07:34N 38°41' W 009°11'0 0.1
2015-Jul-27 06:33N 38°41' W 009°11'4 4.2
2015-Jul-27 05:33N 38°41' W 009°16'7 6.8
2015-Jul-27 04:33N 38°37' W 009°24'4 3.8
2015-Jul-27 03:33N 38°41' W 009°24'0 0.0
2015-Jul-27 02:33N 38°41' W 009°24'0 0.0
2015-Jul-27 01:33N 38°41' W 009°24'0 0.0
2015-Jul-27 00:33N 38°41' W 009°24'0 0.0
2015-Jul-26 23:33N 38°41' W 009°24'0 0.0
2015-Jul-26 22:33N 38°41' W 009°24'0 0.0
2015-Jul-26 21:30N 38°41' W 009°24'0 0.0
2015-Jul-26 20:33N 38°41' W 009°24'0 0.0
2015-Jul-26 19:30N 38°41' W 009°24'0 0.0
2015-Jul-26 18:33N 38°41' W 009°24'0 0.0
2015-Jul-26 17:33N 38°41' W 009°24'0 0.0
2015-Jul-26 16:33N 38°41' W 009°24'0 0.0
2015-Jul-26 15:33N 38°41' W 009°24'0 0.0
2015-Jul-26 14:30N 38°41' W 009°24'0 0.0
2015-Jul-26 13:33N 38°41' W 009°24'0 0.0
2015-Jul-26 12:33N 38°41' W 009°24'0 0.1
2015-Jul-26 11:33N 38°41' W 009°24'0 0.0
2015-Jul-26 10:33N 38°41' W 009°24'0 0.0
2015-Jul-26 09:33N 38°41' W 009°24'0 0.0
2015-Jul-26 08:33N 38°41' W 009°24'0 0.0
2015-Jul-26 07:33N 38°41' W 009°24'0 0.0
2015-Jul-26 06:33N 38°41' W 009°24'0 0.1
2015-Jul-26 05:33N 38°41' W 009°24'0 0.0
2015-Jul-26 04:33N 38°41' W 009°24'0 0.0
2015-Jul-26 03:33N 38°41' W 009°24'0 0.0
2015-Jul-26 02:33N 38°41' W 009°24'0 0.0
2015-Jul-26 01:33N 38°41' W 009°24'0 0.0
2015-Jul-26 00:33N 38°41' W 009°24'0 0.0
2015-Jul-25 23:33N 38°41' W 009°24'0 0.0
2015-Jul-25 22:33N 38°41' W 009°24'0 0.0
2015-Jul-25 21:33N 38°41' W 009°24'0 0.0
2015-Jul-25 20:33N 38°41' W 009°24'1 1.0
2015-Jul-25 19:33N 38°40' W 009°24'10 9.8
2015-Jul-25 18:34N 38°31' W 009°24'9 8.5
2015-Jul-25 17:34N 38°22' W 009°24'8 7.6
2015-Jul-25 16:34N 38°14' W 009°24'7 7.3
2015-Jul-25 15:33N 38°07' W 009°23'7 7.1
2015-Jul-25 14:34N 37°60' W 009°22'7 7.1
2015-Jul-25 13:33N 37°53' W 009°22'7 7.4
2015-Jul-25 12:33N 37°45' W 009°22'8 8.0
2015-Jul-25 11:34N 37°38' W 009°22'8 8.0
2015-Jul-25 10:32N 37°29' W 009°22'80 7.0
2015-Jul-24 23:14N 36°12' W 008°57'6 8.3
2015-Jul-24 22:29N 36°06' W 008°57'179 6.4
2015-Jul-23 18:23N 33°08' W 008°37'0 0.0
2015-Jul-23 07:23N 33°08' W 008°37'0 0.0
2015-Jul-23 06:29N 33°08' W 008°37'4 0.2
2015-Jul-22 06:09N 33°08' W 008°42'317 9.2
2015-Jul-20 19:33N 38°19' W 009°60'1111.1
2015-Jul-20 18:33N 38°29' W 010°04'1111.1
2015-Jul-20 17:33N 38°40' W 010°07'1210.9
2015-Jul-20 16:28N 38°52' W 010°07'  
Track history (hours):
 
Tides and Currents Weather Stations Pressure Air Temp Water Temp Dewpoint Dewpoint Depression Visibility Wind Speed Wind Dir Waves Ship Positions

Tina-c

Last reported at 2015-Jul-30 01:23 UTC. Time now 2015-Aug-03 21:20 UTC.
Position N 38°00' W 010°09'.

Length 99 m; draft 6.4 m.

Type: Cargo ship. MMSI: 235061987.

Date/timePositionNaut miles runAvg speedWind from/ knotsBaromVisibWave heightAir tempDewpointWater temp
2015-Jul-30 01:23N 38°00' W 010°09'910.6
2015-Jul-30 00:34N 38°07' W 010°01'9 8.8
2015-Jul-29 23:33N 38°13' W 009°53'1010.3
2015-Jul-29 22:33N 38°20' W 009°44'1111.2
2015-Jul-29 21:34N 38°28' W 009°34'1111.0
2015-Jul-29 20:34N 38°36' W 009°24'9 7.6
2015-Jul-29 19:22N 38°40' W 009°14'0 0.0
2015-Jul-29 18:28N 38°40' W 009°14'0 0.0
2015-Jul-29 17:04N 38°40' W 009°14'0 0.0
2015-Jul-29 16:19N 38°40' W 009°14'0 0.0
2015-Jul-29 15:28N 38°40' W 009°14'0 0.0
2015-Jul-29 14:31N 38°40' W 009°14'0 0.0
2015-Jul-29 13:28N 38°40' W 009°14'0 0.0
2015-Jul-29 12:28N 38°41' W 009°14'0 0.0
2015-Jul-29 11:22N 38°40' W 009°14'0 0.0
2015-Jul-29 10:22N 38°40' W 009°14'0 0.0
2015-Jul-29 09:28N 38°40' W 009°14'0 0.0
2015-Jul-29 08:28N 38°40' W 009°14'0 0.0
2015-Jul-29 07:28N 38°40' W 009°14'0 0.0
2015-Jul-29 06:22N 38°40' W 009°14'0 0.0
2015-Jul-29 05:13N 38°40' W 009°14'0 0.0
2015-Jul-29 04:31N 38°40' W 009°14'0 0.0
2015-Jul-29 03:31N 38°40' W 009°14'0 0.0
2015-Jul-29 02:31N 38°40' W 009°14'0 0.0
2015-Jul-29 01:28N 38°40' W 009°14'0 0.0
2015-Jul-29 00:28N 38°40' W 009°14'0 0.0
2015-Jul-28 23:31N 38°40' W 009°14'0 0.0
2015-Jul-28 22:28N 38°40' W 009°14'0 0.0
2015-Jul-28 21:19N 38°40' W 009°14'0 0.0
2015-Jul-28 20:16N 38°40' W 009°14'0 0.0
2015-Jul-28 19:22N 38°40' W 009°14'0 0.0
2015-Jul-28 18:28N 38°40' W 009°14'0 0.0
2015-Jul-28 17:31N 38°40' W 009°14'0 0.0
2015-Jul-28 16:28N 38°40' W 009°14'0 0.0
2015-Jul-28 15:22N 38°41' W 009°14'0 0.0
2015-Jul-28 14:31N 38°40' W 009°14'0 0.0
2015-Jul-28 13:22N 38°40' W 009°14'0 0.0
2015-Jul-28 10:22N 38°40' W 009°14'0 0.0
2015-Jul-28 09:28N 38°41' W 009°14'0 0.0
2015-Jul-28 08:16N 38°40' W 009°14'0 0.0
2015-Jul-28 07:28N 38°40' W 009°14'0 0.0
2015-Jul-28 06:28N 38°40' W 009°14'0 0.0
2015-Jul-28 05:28N 38°40' W 009°14'0 0.0
2015-Jul-28 04:28N 38°40' W 009°14'0 0.0
2015-Jul-28 03:28N 38°40' W 009°14'0 0.0
2015-Jul-28 02:28N 38°40' W 009°14'0 0.0
2015-Jul-28 01:31N 38°40' W 009°14'0 0.0
2015-Jul-28 00:28N 38°40' W 009°14'0 0.0
2015-Jul-27 23:28N 38°40' W 009°14'0 0.0
2015-Jul-27 22:31N 38°40' W 009°14'0 0.0
2015-Jul-27 21:28N 38°41' W 009°14'0 0.0
2015-Jul-27 20:28N 38°40' W 009°14'0 0.0
2015-Jul-27 19:16N 38°40' W 009°14'0 0.0
2015-Jul-27 18:28N 38°40' W 009°14'0 0.0
2015-Jul-27 17:28N 38°41' W 009°14'3 2.7
2015-Jul-27 16:31N 38°41' W 009°11'0 0.0
2015-Jul-27 15:28N 38°41' W 009°11'0 0.0
2015-Jul-27 14:31N 38°41' W 009°11'0 0.0
2015-Jul-27 13:34N 38°41' W 009°11'0 0.0
2015-Jul-27 12:31N 38°41' W 009°11'0 0.0
2015-Jul-27 11:34N 38°41' W 009°11'0 0.0
2015-Jul-27 10:34N 38°41' W 009°11'0 0.0
2015-Jul-27 09:34N 38°41' W 009°11'0 0.0
2015-Jul-27 08:34N 38°41' W 009°11'0 0.0
2015-Jul-27 07:34N 38°41' W 009°11'0 0.1
2015-Jul-27 06:33N 38°41' W 009°11'4 4.2
2015-Jul-27 05:33N 38°41' W 009°16'7 6.8
2015-Jul-27 04:33N 38°37' W 009°24'4 3.8
2015-Jul-27 03:33N 38°41' W 009°24'0 0.0
2015-Jul-27 02:33N 38°41' W 009°24'0 0.0
2015-Jul-27 01:33N 38°41' W 009°24'0 0.0
2015-Jul-27 00:33N 38°41' W 009°24'0 0.0
2015-Jul-26 23:33N 38°41' W 009°24'0 0.0
2015-Jul-26 22:33N 38°41' W 009°24'0 0.0
2015-Jul-26 21:30N 38°41' W 009°24'0 0.0
2015-Jul-26 20:33N 38°41' W 009°24'0 0.0
2015-Jul-26 19:30N 38°41' W 009°24'0 0.0
2015-Jul-26 18:33N 38°41' W 009°24'0 0.0
2015-Jul-26 17:33N 38°41' W 009°24'0 0.0
2015-Jul-26 16:33N 38°41' W 009°24'0 0.0
2015-Jul-26 15:33N 38°41' W 009°24'0 0.0
2015-Jul-26 14:30N 38°41' W 009°24'0 0.0
2015-Jul-26 13:33N 38°41' W 009°24'0 0.0
2015-Jul-26 12:33N 38°41' W 009°24'0 0.1
2015-Jul-26 11:33N 38°41' W 009°24'0 0.0
2015-Jul-26 10:33N 38°41' W 009°24'0 0.0
2015-Jul-26 09:33N 38°41' W 009°24'0 0.0
2015-Jul-26 08:33N 38°41' W 009°24'0 0.0
2015-Jul-26 07:33N 38°41' W 009°24'0 0.0
2015-Jul-26 06:33N 38°41' W 009°24'0 0.1
2015-Jul-26 05:33N 38°41' W 009°24'0 0.0
2015-Jul-26 04:33N 38°41' W 009°24'0 0.0
2015-Jul-26 03:33N 38°41' W 009°24'0 0.0
2015-Jul-26 02:33N 38°41' W 009°24'0 0.0
2015-Jul-26 01:33N 38°41' W 009°24'0 0.0
2015-Jul-26 00:33N 38°41' W 009°24'0 0.0
2015-Jul-25 23:33N 38°41' W 009°24'0 0.0
2015-Jul-25 22:33N 38°41' W 009°24'0 0.0
2015-Jul-25 21:33N 38°41' W 009°24'0 0.0
2015-Jul-25 20:33N 38°41' W 009°24'1 1.0
2015-Jul-25 19:33N 38°40' W 009°24'10 9.8
2015-Jul-25 18:34N 38°31' W 009°24'9 8.5
2015-Jul-25 17:34N 38°22' W 009°24'8 7.6
2015-Jul-25 16:34N 38°14' W 009°24'7 7.3
2015-Jul-25 15:33N 38°07' W 009°23'7 7.1
2015-Jul-25 14:34N 37°60' W 009°22'7 7.1
2015-Jul-25 13:33N 37°53' W 009°22'7 7.4
2015-Jul-25 12:33N 37°45' W 009°22'8 8.0
2015-Jul-25 11:34N 37°38' W 009°22'8 8.0
2015-Jul-25 10:32N 37°29' W 009°22'80 7.0
2015-Jul-24 23:14N 36°12' W 008°57'6 8.3
2015-Jul-24 22:29N 36°06' W 008°57'179 6.4
2015-Jul-23 18:23N 33°08' W 008°37'0 0.0
2015-Jul-23 07:23N 33°08' W 008°37'0 0.0
2015-Jul-23 06:29N 33°08' W 008°37'4 0.2
2015-Jul-22 06:09N 33°08' W 008°42'317 9.2
2015-Jul-20 19:33N 38°19' W 009°60'1111.1
2015-Jul-20 18:33N 38°29' W 010°04'1111.1
2015-Jul-20 17:33N 38°40' W 010°07'1210.9
2015-Jul-20 16:28N 38°52' W 010°07'  

Dump ship's entire track history